createdAt,value
2022-10-14T00:00:10.575Z,100569.06
2022-10-14T00:05:12.064Z,100569.88
2022-10-14T00:10:13.512Z,100560.66
2022-10-14T00:15:14.880Z,100558.00
2022-10-14T00:20:16.399Z,100548.75
2022-10-14T00:25:17.756Z,100561.19
2022-10-14T00:30:19.175Z,100560.78
2022-10-14T00:35:20.541Z,100557.31
2022-10-14T00:40:21.905Z,100556.44
2022-10-14T00:45:24.285Z,100550.03
2022-10-14T00:50:25.802Z,100547.91
2022-10-14T00:55:28.689Z,100558.13
2022-10-14T01:00:30.115Z,100541.38
2022-10-14T01:05:37.186Z,100547.47
2022-10-14T01:11:00.413Z,100551.13
2022-10-14T01:16:10.970Z,100548.47
2022-10-14T01:21:17.195Z,100545.13
2022-10-14T01:26:24.804Z,100538.13
2022-10-14T01:31:32.431Z,100543.03
2022-10-14T01:36:39.014Z,100530.03
2022-10-14T01:41:46.599Z,100524.84
2022-10-14T01:46:53.361Z,100514.22
2022-10-14T01:52:01.689Z,100507.41
2022-10-14T01:57:07.889Z,100505.16
2022-10-14T02:02:12.641Z,100504.75
2022-10-14T02:07:32.387Z,100501.66
2022-10-14T02:12:36.661Z,100491.56
2022-10-14T02:17:42.749Z,100485.72
2022-10-14T02:22:51.905Z,100476.53
2022-10-14T02:27:54.347Z,100472.59
2022-10-14T02:32:58.630Z,100457.19
2022-10-14T02:38:00.751Z,100456.91
2022-10-14T02:43:02.197Z,100442.97
2022-10-14T02:48:04.117Z,100438.03
2022-10-14T02:53:05.655Z,100428.69
2022-10-14T02:58:07.122Z,100424.97
2022-10-14T03:03:08.594Z,100433.63
2022-10-14T03:08:09.969Z,100425.56
2022-10-14T03:13:11.401Z,100427.81
2022-10-14T03:18:12.740Z,100414.25
2022-10-14T03:23:14.167Z,100427.31
2022-10-14T03:28:15.640Z,100418.44
2022-10-14T03:33:20.434Z,100413.72
2022-10-14T03:38:22.014Z,100406.66
2022-10-14T03:43:23.425Z,100421.22
2022-10-14T03:48:24.811Z,100417.28
2022-10-14T03:53:26.217Z,100405.59
2022-10-14T03:58:27.597Z,100417.06
2022-10-14T04:03:29.037Z,100417.44
2022-10-14T04:08:30.478Z,100413.72
2022-10-14T04:13:31.946Z,100408.94
2022-10-14T04:18:34.466Z,100403.09
2022-10-14T04:23:36.595Z,100392.72
2022-10-14T04:28:38.276Z,100385.16
2022-10-14T04:33:39.675Z,100381.69
2022-10-14T04:38:41.015Z,100376.31
2022-10-14T04:43:42.362Z,100368.81
2022-10-14T04:48:43.702Z,100365.50
2022-10-14T04:53:45.118Z,100364.19
2022-10-14T04:58:46.503Z,100369.91
2022-10-14T05:03:47.835Z,100366.09
2022-10-14T05:09:14.261Z,100366.25
2022-10-14T05:14:15.807Z,100361.53
2022-10-14T05:19:17.259Z,100346.00
2022-10-14T05:24:18.782Z,100342.22
2022-10-14T05:29:20.139Z,100348.53
2022-10-14T05:34:21.539Z,100347.81
2022-10-14T05:39:22.897Z,100353.84
2022-10-14T05:44:24.373Z,100346.97
2022-10-14T05:49:25.739Z,100346.00
2022-10-14T05:54:27.409Z,100338.41
2022-10-14T05:59:28.744Z,100334.38
2022-10-14T06:04:30.182Z,100329.63
2022-10-14T06:09:31.571Z,100324.09
2022-10-14T06:14:33.081Z,100335.59
2022-10-14T06:19:34.426Z,100338.88
2022-10-14T06:24:35.792Z,100335.75
2022-10-14T06:29:37.148Z,100339.63
2022-10-14T06:34:38.610Z,100328.78
2022-10-14T06:39:39.962Z,100325.13
2022-10-14T06:44:41.286Z,100328.94
2022-10-14T06:49:42.687Z,100314.31
2022-10-14T06:54:48.176Z,100310.19
2022-10-14T06:59:49.835Z,100301.56
2022-10-14T07:04:51.176Z,100291.63
2022-10-14T07:09:52.533Z,100296.09
2022-10-14T07:14:53.930Z,100294.56
2022-10-14T07:19:55.310Z,100300.94
2022-10-14T07:24:56.650Z,100307.84
2022-10-14T07:29:58.080Z,100301.94
2022-10-14T07:34:59.434Z,100305.03
2022-10-14T07:40:00.771Z,100293.81
2022-10-14T07:45:02.173Z,100300.28
2022-10-14T07:50:03.905Z,100300.34
2022-10-14T07:55:06.149Z,100298.97
2022-10-14T08:00:08.285Z,100296.88
2022-10-14T08:10:31.039Z,100302.09
2022-10-14T08:15:37.392Z,100296.00
2022-10-14T08:20:38.786Z,100297.38
2022-10-14T08:25:41.714Z,100290.56
2022-10-14T08:30:43.144Z,100278.34
2022-10-14T08:35:44.853Z,100282.16
2022-10-14T08:41:02.228Z,100283.94
2022-10-14T08:46:13.847Z,100278.19
2022-10-14T08:51:18.726Z,100275.22
2022-10-14T08:56:20.645Z,100270.69
2022-10-14T09:01:21.931Z,100272.19
2022-10-14T09:06:31.598Z,100267.06
2022-10-14T09:11:39.735Z,100253.13
2022-10-14T09:16:42.154Z,100251.00
2022-10-14T09:21:53.330Z,100247.03
2022-10-14T09:27:00.055Z,100236.41
2022-10-14T09:32:05.290Z,100228.25
2022-10-14T09:37:24.650Z,100215.16
2022-10-14T09:42:40.619Z,100211.34
2022-10-14T09:47:45.634Z,100211.22
2022-10-14T09:52:52.274Z,100196.59
2022-10-14T09:58:06.590Z,100205.25
2022-10-14T10:03:07.971Z,100214.22
2022-10-14T10:08:18.719Z,100211.34
2022-10-14T10:13:22.306Z,100210.06
2022-10-14T10:18:24.306Z,100205.09
2022-10-14T10:23:25.736Z,100208.88
2022-10-14T10:28:29.259Z,100195.72
2022-10-14T10:33:49.170Z,100193.63
2022-10-14T10:39:14.850Z,100190.09
2022-10-14T10:44:47.301Z,100174.53
2022-10-14T10:50:13.555Z,100167.59
2022-10-14T10:55:28.655Z,100170.72
2022-10-14T11:00:38.914Z,100169.88
2022-10-14T11:05:56.616Z,100159.94
2022-10-14T11:11:09.758Z,100150.13
2022-10-14T11:16:32.031Z,100146.84
2022-10-14T11:21:48.901Z,100150.47
2022-10-14T11:27:09.005Z,100144.63
2022-10-14T11:32:19.714Z,100134.72
2022-10-14T11:37:27.288Z,100125.75
2022-10-14T11:42:46.895Z,100113.63
2022-10-14T11:47:52.986Z,100115.28
2022-10-14T11:53:29.785Z,100107.97
2022-10-14T11:58:34.954Z,100105.47
2022-10-14T12:04:25.896Z,100100.25
2022-10-14T12:09:44.190Z,100084.75
2022-10-14T12:14:54.921Z,100080.38
2022-10-14T12:19:58.183Z,100078.19
2022-10-14T12:25:14.335Z,100081.94
2022-10-14T12:30:42.477Z,100088.78
2022-10-14T12:35:51.494Z,100067.97
2022-10-14T12:40:53.384Z,100078.09
2022-10-14T12:46:09.063Z,100070.81
2022-10-14T12:51:22.766Z,100063.50
2022-10-14T12:56:30.631Z,100056.19
2022-10-14T13:01:35.519Z,100048.06
2022-10-14T13:06:42.156Z,100040.91
2022-10-14T13:12:08.931Z,100027.16
2022-10-14T13:17:42.698Z,100011.34
2022-10-14T13:22:44.154Z,100004.06
2022-10-14T13:27:55.930Z,100007.19
2022-10-14T13:33:13.075Z,100002.06
2022-10-14T13:38:17.399Z,100008.50
2022-10-14T13:43:22.963Z,100006.03
2022-10-14T13:48:35.500Z,100014.00
2022-10-14T13:53:48.911Z,100008.72
2022-10-14T13:58:50.291Z,100001.06
2022-10-14T14:03:55.656Z,99998.75
2022-10-14T14:09:00.125Z,99994.75
2022-10-14T14:14:07.858Z,99981.78
2022-10-14T14:19:20.015Z,99972.84
2022-10-14T14:24:25.681Z,99969.00
2022-10-14T14:29:30.976Z,99956.91
2022-10-14T14:34:32.526Z,99950.75
2022-10-14T14:39:33.872Z,99945.75
2022-10-14T14:44:35.821Z,99944.94
2022-10-14T14:49:38.075Z,99940.63
2022-10-14T14:54:46.965Z,99950.75
2022-10-14T15:00:07.529Z,99945.41
2022-10-14T15:05:10.575Z,99943.25
2022-10-14T15:10:28.086Z,99944.09
2022-10-14T15:15:32.729Z,99936.47
2022-10-14T15:20:36.965Z,99923.69
2022-10-14T15:25:38.459Z,99928.00
2022-10-14T15:30:39.794Z,99930.31
2022-10-14T15:35:42.203Z,99928.00
2022-10-14T15:40:47.961Z,99906.22
2022-10-14T15:45:51.741Z,99909.75
2022-10-14T15:50:53.134Z,99910.41
2022-10-14T15:55:54.619Z,99908.88
2022-10-14T16:00:56.040Z,99892.78
2022-10-14T16:05:58.238Z,99892.78
2022-10-14T16:10:59.723Z,99887.63
2022-10-14T16:16:04.010Z,99877.19
2022-10-14T16:21:05.618Z,99874.69
2022-10-14T16:26:07.042Z,99878.03
2022-10-14T16:31:12.686Z,99874.69
2022-10-14T16:36:14.583Z,99870.53
2022-10-14T16:41:15.992Z,99876.50
2022-10-14T16:46:17.367Z,99870.88
2022-10-14T16:56:25.021Z,99869.22
2022-10-14T17:01:26.925Z,99874.84
2022-10-14T17:06:28.330Z,99887.97
2022-10-14T17:11:30.102Z,99876.50
2022-10-14T17:16:31.485Z,99866.88
2022-10-14T17:21:32.909Z,99877.50
2022-10-14T17:26:34.651Z,99897.09
2022-10-14T17:31:36.006Z,99897.94
2022-10-14T17:36:37.595Z,99894.28
2022-10-14T17:41:39.007Z,99890.13
2022-10-14T17:46:40.362Z,99890.13
2022-10-14T17:51:42.238Z,99885.63
2022-10-14T17:56:43.611Z,99897.94
2022-10-14T18:07:06.321Z,99894.44
2022-10-14T18:12:09.464Z,99888.66
2022-10-14T18:17:12.110Z,99884.97
2022-10-14T18:22:13.472Z,99876.19
2022-10-14T18:27:14.893Z,99876.69
2022-10-14T18:32:16.576Z,99871.22
2022-10-14T18:37:17.957Z,99874.19
2022-10-14T18:42:20.927Z,99853.59
2022-10-14T18:47:22.582Z,99846.28
2022-10-14T18:52:24.546Z,99858.59
2022-10-14T18:57:26.105Z,99850.94
2022-10-14T19:02:27.609Z,99838.47
2022-10-14T19:07:28.965Z,99835.16
2022-10-14T19:12:30.353Z,99826.03
2022-10-14T19:17:31.726Z,99833.34
2022-10-14T19:22:33.742Z,99836.84
2022-10-14T19:27:35.119Z,99839.50
2022-10-14T19:32:36.499Z,99824.72
2022-10-14T19:37:37.895Z,99813.09
2022-10-14T19:42:39.260Z,99814.09
2022-10-14T19:47:40.617Z,99804.31
2022-10-14T19:52:41.990Z,99810.28
2022-10-14T19:57:43.386Z,99797.50
2022-10-14T20:02:44.775Z,99801.13
2022-10-14T20:07:46.612Z,99797.31
2022-10-14T20:12:48.000Z,99790.84
2022-10-14T20:17:49.373Z,99790.66
2022-10-14T20:22:50.746Z,99780.53
2022-10-14T20:27:52.350Z,99778.22
2022-10-14T20:32:53.798Z,99774.22
2022-10-14T20:37:55.187Z,99771.56
2022-10-14T20:42:56.740Z,99762.09
2022-10-14T20:47:58.134Z,99771.06
2022-10-14T20:52:59.511Z,99769.56
2022-10-14T20:58:00.874Z,99769.56
2022-10-14T21:03:02.244Z,99773.22
2022-10-14T21:08:04.830Z,99752.94
2022-10-14T21:13:06.184Z,99755.28
2022-10-14T21:18:07.588Z,99763.72
2022-10-14T21:23:08.959Z,99753.28
2022-10-14T21:28:10.778Z,99741.78
2022-10-14T21:33:12.191Z,99745.44
2022-10-14T21:38:13.575Z,99726.03
2022-10-14T21:43:14.964Z,99726.22
2022-10-14T21:48:16.363Z,99720.06
2022-10-14T21:53:17.770Z,99712.94
2022-10-14T21:58:19.133Z,99698.25
2022-10-14T22:03:20.613Z,99693.81
2022-10-14T22:08:21.985Z,99708.78
2022-10-14T22:13:23.564Z,99696.16
2022-10-14T22:18:24.950Z,99704.78
2022-10-14T22:23:26.377Z,99695.34
2022-10-14T22:28:28.119Z,99688.84
2022-10-14T22:33:33.698Z,99683.50
2022-10-14T22:38:38.675Z,99670.78
2022-10-14T22:43:44.864Z,99676.78
2022-10-14T22:48:47.643Z,99657.38
2022-10-14T22:53:49.007Z,99660.81
2022-10-14T22:58:59.194Z,99663.94
2022-10-14T23:04:01.225Z,99668.94
2022-10-14T23:09:03.562Z,99662.31
2022-10-14T23:14:07.315Z,99663.13
2022-10-14T23:19:09.144Z,99657.78
2022-10-14T23:24:11.671Z,99651.31
2022-10-14T23:29:13.054Z,99655.31
2022-10-14T23:34:14.421Z,99649.66
2022-10-14T23:39:15.814Z,99659.28
2022-10-14T23:44:17.167Z,99659.63
2022-10-14T23:49:25.875Z,99673.88
2022-10-14T23:54:27.522Z,99668.41
2022-10-14T23:59:28.870Z,99653.91
